sensor_id;sensor_type;location;lat;lon;timestamp;P1;durP1;ratioP1;P2;durP2;ratioP2
19049;SDS011;9657;45.940;12.840;2022-10-16T00:01:03;29.38;;;22.60;;
19049;SDS011;9657;45.940;12.840;2022-10-16T00:03:32;28.48;;;21.38;;
19049;SDS011;9657;45.940;12.840;2022-10-16T00:05:59;29.48;;;21.30;;
19049;SDS011;9657;45.940;12.840;2022-10-16T00:08:27;29.38;;;21.95;;
19049;SDS011;9657;45.940;12.840;2022-10-16T00:10:58;28.17;;;21.52;;
19049;SDS011;9657;45.940;12.840;2022-10-16T00:13:26;30.42;;;21.45;;
19049;SDS011;9657;45.940;12.840;2022-10-16T00:15:56;32.30;;;23.63;;
19049;SDS011;9657;45.940;12.840;2022-10-16T00:18:24;29.02;;;21.52;;
19049;SDS011;9657;45.940;12.840;2022-10-16T00:20:51;29.02;;;21.63;;
19049;SDS011;9657;45.940;12.840;2022-10-16T00:23:19;27.08;;;21.45;;
19049;SDS011;9657;45.940;12.840;2022-10-16T00:25:54;28.70;;;21.77;;
19049;SDS011;9657;45.940;12.840;2022-10-16T00:28:22;28.40;;;21.48;;
19049;SDS011;9657;45.940;12.840;2022-10-16T00:30:49;26.10;;;21.02;;
19049;SDS011;9657;45.940;12.840;2022-10-16T00:33:17;28.25;;;21.92;;
19049;SDS011;9657;45.940;12.840;2022-10-16T00:35:45;30.05;;;22.45;;
19049;SDS011;9657;45.940;12.840;2022-10-16T00:38:12;32.22;;;22.23;;
19049;SDS011;9657;45.940;12.840;2022-10-16T00:40:39;33.00;;;23.23;;
19049;SDS011;9657;45.940;12.840;2022-10-16T00:43:09;30.60;;;21.83;;
19049;SDS011;9657;45.940;12.840;2022-10-16T00:45:40;26.90;;;21.45;;
19049;SDS011;9657;45.940;12.840;2022-10-16T00:48:08;29.15;;;21.85;;
19049;SDS011;9657;45.940;12.840;2022-10-16T00:50:41;30.13;;;21.75;;
19049;SDS011;9657;45.940;12.840;2022-10-16T00:53:09;29.02;;;21.70;;
19049;SDS011;9657;45.940;12.840;2022-10-16T00:55:38;33.30;;;22.75;;
19049;SDS011;9657;45.940;12.840;2022-10-16T00:58:05;31.95;;;22.30;;
19049;SDS011;9657;45.940;12.840;2022-10-16T01:03:21;28.70;;;21.67;;
19049;SDS011;9657;45.940;12.840;2022-10-16T01:05:57;30.52;;;21.40;;
19049;SDS011;9657;45.940;12.840;2022-10-16T01:08:43;27.42;;;22.02;;
19049;SDS011;9657;45.940;12.840;2022-10-16T01:11:17;26.60;;;20.65;;
19049;SDS011;9657;45.940;12.840;2022-10-16T01:13:52;30.13;;;22.15;;
19049;SDS011;9657;45.940;12.840;2022-10-16T01:16:23;29.15;;;22.00;;
19049;SDS011;9657;45.940;12.840;2022-10-16T01:18:59;27.15;;;21.63;;
19049;SDS011;9657;45.940;12.840;2022-10-16T01:21:35;28.80;;;22.02;;
19049;SDS011;9657;45.940;12.840;2022-10-16T01:24:06;32.60;;;22.55;;
19049;SDS011;9657;45.940;12.840;2022-10-16T01:29:40;27.27;;;20.65;;
19049;SDS011;9657;45.940;12.840;2022-10-16T01:32:15;27.75;;;20.95;;
19049;SDS011;9657;45.940;12.840;2022-10-16T01:34:48;27.92;;;21.48;;
19049;SDS011;9657;45.940;12.840;2022-10-16T01:37:22;28.20;;;20.73;;
19049;SDS011;9657;45.940;12.840;2022-10-16T01:39:55;28.98;;;22.25;;
19049;SDS011;9657;45.940;12.840;2022-10-16T01:42:28;29.10;;;22.17;;
19049;SDS011;9657;45.940;12.840;2022-10-16T01:45:00;31.33;;;22.67;;
19049;SDS011;9657;45.940;12.840;2022-10-16T01:47:31;27.88;;;21.15;;
19049;SDS011;9657;45.940;12.840;2022-10-16T01:49:59;29.40;;;21.48;;
19049;SDS011;9657;45.940;12.840;2022-10-16T01:52:30;29.20;;;22.15;;
19049;SDS011;9657;45.940;12.840;2022-10-16T01:55:01;28.35;;;21.83;;
19049;SDS011;9657;45.940;12.840;2022-10-16T01:57:32;26.85;;;21.67;;
19049;SDS011;9657;45.940;12.840;2022-10-16T02:00:04;28.10;;;19.92;;
19049;SDS011;9657;45.940;12.840;2022-10-16T02:02:35;30.10;;;21.77;;
19049;SDS011;9657;45.940;12.840;2022-10-16T02:05:03;28.08;;;20.63;;
19049;SDS011;9657;45.940;12.840;2022-10-16T02:07:36;27.42;;;20.60;;
19049;SDS011;9657;45.940;12.840;2022-10-16T02:10:04;29.83;;;22.27;;
19049;SDS011;9657;45.940;12.840;2022-10-16T02:12:33;28.42;;;21.13;;
19049;SDS011;9657;45.940;12.840;2022-10-16T02:15:04;30.38;;;21.20;;
19049;SDS011;9657;45.940;12.840;2022-10-16T02:17:32;28.58;;;20.77;;
19049;SDS011;9657;45.940;12.840;2022-10-16T02:19:59;27.83;;;20.00;;
19049;SDS011;9657;45.940;12.840;2022-10-16T02:22:27;25.38;;;20.70;;
19049;SDS011;9657;45.940;12.840;2022-10-16T02:24:58;27.27;;;21.15;;
19049;SDS011;9657;45.940;12.840;2022-10-16T02:27:33;28.92;;;21.70;;
19049;SDS011;9657;45.940;12.840;2022-10-16T02:30:05;29.92;;;22.20;;
19049;SDS011;9657;45.940;12.840;2022-10-16T02:32:36;29.15;;;21.23;;
19049;SDS011;9657;45.940;12.840;2022-10-16T02:35:07;28.00;;;20.60;;
19049;SDS011;9657;45.940;12.840;2022-10-16T02:37:35;27.67;;;21.00;;
19049;SDS011;9657;45.940;12.840;2022-10-16T02:40:04;27.80;;;20.88;;
19049;SDS011;9657;45.940;12.840;2022-10-16T02:42:35;31.80;;;22.23;;
19049;SDS011;9657;45.940;12.840;2022-10-16T02:45:03;28.58;;;20.23;;
19049;SDS011;9657;45.940;12.840;2022-10-16T02:47:31;28.25;;;21.65;;
19049;SDS011;9657;45.940;12.840;2022-10-16T02:49:58;27.38;;;20.55;;
19049;SDS011;9657;45.940;12.840;2022-10-16T02:52:25;26.25;;;21.25;;
19049;SDS011;9657;45.940;12.840;2022-10-16T02:54:52;28.70;;;21.90;;
19049;SDS011;9657;45.940;12.840;2022-10-16T02:57:19;27.33;;;21.42;;
19049;SDS011;9657;45.940;12.840;2022-10-16T02:59:48;31.13;;;21.55;;
19049;SDS011;9657;45.940;12.840;2022-10-16T03:02:15;27.73;;;20.35;;
19049;SDS011;9657;45.940;12.840;2022-10-16T03:04:42;26.33;;;19.50;;
19049;SDS011;9657;45.940;12.840;2022-10-16T03:07:09;25.45;;;20.40;;
19049;SDS011;9657;45.940;12.840;2022-10-16T03:09:36;28.45;;;21.05;;
19049;SDS011;9657;45.940;12.840;2022-10-16T03:12:03;26.67;;;20.02;;
19049;SDS011;9657;45.940;12.840;2022-10-16T03:14:30;25.50;;;19.92;;
19049;SDS011;9657;45.940;12.840;2022-10-16T03:16:59;33.28;;;21.85;;
19049;SDS011;9657;45.940;12.840;2022-10-16T03:19:26;26.52;;;20.67;;
19049;SDS011;9657;45.940;12.840;2022-10-16T03:21:53;26.10;;;19.23;;
19049;SDS011;9657;45.940;12.840;2022-10-16T03:24:20;27.67;;;20.38;;
19049;SDS011;9657;45.940;12.840;2022-10-16T03:26:47;29.80;;;20.52;;
19049;SDS011;9657;45.940;12.840;2022-10-16T03:29:14;27.05;;;20.88;;
19049;SDS011;9657;45.940;12.840;2022-10-16T03:31:41;25.48;;;19.33;;
19049;SDS011;9657;45.940;12.840;2022-10-16T03:34:09;30.90;;;21.95;;
19049;SDS011;9657;45.940;12.840;2022-10-16T03:36:36;28.45;;;20.55;;
19049;SDS011;9657;45.940;12.840;2022-10-16T03:39:03;27.42;;;21.00;;
19049;SDS011;9657;45.940;12.840;2022-10-16T03:41:30;29.83;;;20.38;;
19049;SDS011;9657;45.940;12.840;2022-10-16T03:43:57;28.30;;;20.70;;
19049;SDS011;9657;45.940;12.840;2022-10-16T03:46:24;25.63;;;19.95;;
19049;SDS011;9657;45.940;12.840;2022-10-16T03:48:52;26.17;;;19.77;;
19049;SDS011;9657;45.940;12.840;2022-10-16T03:51:20;27.73;;;20.38;;
19049;SDS011;9657;45.940;12.840;2022-10-16T03:53:47;26.02;;;20.00;;
19049;SDS011;9657;45.940;12.840;2022-10-16T03:56:14;27.55;;;19.75;;
19049;SDS011;9657;45.940;12.840;2022-10-16T03:58:41;28.20;;;21.15;;
19049;SDS011;9657;45.940;12.840;2022-10-16T04:01:08;26.08;;;20.10;;
19049;SDS011;9657;45.940;12.840;2022-10-16T04:03:35;26.27;;;20.92;;
19049;SDS011;9657;45.940;12.840;2022-10-16T04:06:02;26.80;;;20.27;;
19049;SDS011;9657;45.940;12.840;2022-10-16T04:08:31;28.60;;;20.67;;
19049;SDS011;9657;45.940;12.840;2022-10-16T04:10:59;27.60;;;19.90;;
19049;SDS011;9657;45.940;12.840;2022-10-16T04:13:27;29.38;;;20.45;;
19049;SDS011;9657;45.940;12.840;2022-10-16T04:15:54;25.05;;;18.98;;
19049;SDS011;9657;45.940;12.840;2022-10-16T04:18:21;28.58;;;20.35;;
19049;SDS011;9657;45.940;12.840;2022-10-16T04:20:48;27.20;;;20.13;;
19049;SDS011;9657;45.940;12.840;2022-10-16T04:23:15;24.92;;;19.70;;
19049;SDS011;9657;45.940;12.840;2022-10-16T04:25:44;26.42;;;19.98;;
19049;SDS011;9657;45.940;12.840;2022-10-16T04:28:11;26.27;;;20.00;;
19049;SDS011;9657;45.940;12.840;2022-10-16T04:30:38;26.02;;;20.45;;
19049;SDS011;9657;45.940;12.840;2022-10-16T04:33:06;27.05;;;19.95;;
19049;SDS011;9657;45.940;12.840;2022-10-16T04:35:34;25.25;;;19.70;;
19049;SDS011;9657;45.940;12.840;2022-10-16T04:38:01;28.83;;;18.98;;
19049;SDS011;9657;45.940;12.840;2022-10-16T04:40:28;27.85;;;20.95;;
19049;SDS011;9657;45.940;12.840;2022-10-16T04:42:59;25.67;;;19.65;;
19049;SDS011;9657;45.940;12.840;2022-10-16T04:45:26;26.10;;;20.13;;
19049;SDS011;9657;45.940;12.840;2022-10-16T04:47:56;26.10;;;20.10;;
19049;SDS011;9657;45.940;12.840;2022-10-16T04:50:23;25.30;;;19.80;;
19049;SDS011;9657;45.940;12.840;2022-10-16T04:52:50;26.67;;;20.98;;
19049;SDS011;9657;45.940;12.840;2022-10-16T04:55:17;28.35;;;20.05;;
19049;SDS011;9657;45.940;12.840;2022-10-16T04:57:44;26.25;;;19.48;;
19049;SDS011;9657;45.940;12.840;2022-10-16T05:00:13;27.50;;;20.85;;
19049;SDS011;9657;45.940;12.840;2022-10-16T05:02:40;27.48;;;20.05;;
19049;SDS011;9657;45.940;12.840;2022-10-16T05:05:07;27.88;;;20.33;;
19049;SDS011;9657;45.940;12.840;2022-10-16T05:07:34;31.52;;;21.70;;
19049;SDS011;9657;45.940;12.840;2022-10-16T05:10:02;27.58;;;20.55;;
19049;SDS011;9657;45.940;12.840;2022-10-16T05:12:29;29.30;;;20.52;;
19049;SDS011;9657;45.940;12.840;2022-10-16T05:14:56;28.40;;;19.52;;
19049;SDS011;9657;45.940;12.840;2022-10-16T05:17:25;26.63;;;20.35;;
19049;SDS011;9657;45.940;12.840;2022-10-16T05:19:52;28.02;;;20.38;;
19049;SDS011;9657;45.940;12.840;2022-10-16T05:22:19;26.98;;;19.95;;
19049;SDS011;9657;45.940;12.840;2022-10-16T05:24:46;25.17;;;19.63;;
19049;SDS011;9657;45.940;12.840;2022-10-16T05:27:13;29.58;;;20.38;;
19049;SDS011;9657;45.940;12.840;2022-10-16T05:29:44;25.75;;;20.08;;
19049;SDS011;9657;45.940;12.840;2022-10-16T05:32:12;26.00;;;19.63;;
19049;SDS011;9657;45.940;12.840;2022-10-16T05:34:40;24.85;;;18.95;;
19049;SDS011;9657;45.940;12.840;2022-10-16T05:37:07;26.10;;;19.65;;
19049;SDS011;9657;45.940;12.840;2022-10-16T05:39:36;30.48;;;20.73;;
19049;SDS011;9657;45.940;12.840;2022-10-16T05:42:03;27.42;;;20.13;;
19049;SDS011;9657;45.940;12.840;2022-10-16T05:44:31;24.60;;;19.00;;
19049;SDS011;9657;45.940;12.840;2022-10-16T05:46:58;25.30;;;18.75;;
19049;SDS011;9657;45.940;12.840;2022-10-16T05:49:25;26.05;;;18.85;;
19049;SDS011;9657;45.940;12.840;2022-10-16T05:51:54;23.23;;;18.63;;
19049;SDS011;9657;45.940;12.840;2022-10-16T05:54:21;25.80;;;19.23;;
19049;SDS011;9657;45.940;12.840;2022-10-16T05:56:48;25.35;;;18.50;;
19049;SDS011;9657;45.940;12.840;2022-10-16T05:59:15;27.65;;;19.58;;
19049;SDS011;9657;45.940;12.840;2022-10-16T06:01:42;27.95;;;19.05;;
19049;SDS011;9657;45.940;12.840;2022-10-16T06:04:09;25.85;;;19.30;;
19049;SDS011;9657;45.940;12.840;2022-10-16T06:06:36;32.67;;;18.88;;
19049;SDS011;9657;45.940;12.840;2022-10-16T06:09:04;26.08;;;19.10;;
19049;SDS011;9657;45.940;12.840;2022-10-16T06:11:32;28.15;;;20.23;;
19049;SDS011;9657;45.940;12.840;2022-10-16T06:14:00;27.40;;;19.48;;
19049;SDS011;9657;45.940;12.840;2022-10-16T06:16:31;27.30;;;18.98;;
19049;SDS011;9657;45.940;12.840;2022-10-16T06:18:59;27.42;;;19.17;;
19049;SDS011;9657;45.940;12.840;2022-10-16T06:21:26;26.80;;;19.27;;
19049;SDS011;9657;45.940;12.840;2022-10-16T06:23:55;28.70;;;18.98;;
19049;SDS011;9657;45.940;12.840;2022-10-16T06:26:25;28.58;;;19.38;;
19049;SDS011;9657;45.940;12.840;2022-10-16T06:28:53;28.73;;;19.23;;
19049;SDS011;9657;45.940;12.840;2022-10-16T06:31:21;25.70;;;19.65;;
19049;SDS011;9657;45.940;12.840;2022-10-16T06:33:52;28.17;;;20.15;;
19049;SDS011;9657;45.940;12.840;2022-10-16T06:36:20;25.38;;;18.55;;
19049;SDS011;9657;45.940;12.840;2022-10-16T06:38:47;25.75;;;18.30;;
19049;SDS011;9657;45.940;12.840;2022-10-16T06:41:15;30.63;;;20.70;;
19049;SDS011;9657;45.940;12.840;2022-10-16T06:43:45;26.65;;;19.45;;
19049;SDS011;9657;45.940;12.840;2022-10-16T06:46:13;26.23;;;19.27;;
19049;SDS011;9657;45.940;12.840;2022-10-16T06:48:42;24.65;;;18.35;;
19049;SDS011;9657;45.940;12.840;2022-10-16T06:51:09;25.08;;;19.02;;
19049;SDS011;9657;45.940;12.840;2022-10-16T06:53:38;25.33;;;18.92;;
19049;SDS011;9657;45.940;12.840;2022-10-16T06:56:07;23.55;;;17.58;;
19049;SDS011;9657;45.940;12.840;2022-10-16T06:58:34;29.00;;;19.00;;
19049;SDS011;9657;45.940;12.840;2022-10-16T07:01:03;23.38;;;17.92;;
19049;SDS011;9657;45.940;12.840;2022-10-16T07:03:30;29.58;;;19.48;;
19049;SDS011;9657;45.940;12.840;2022-10-16T07:06:01;29.10;;;19.55;;
19049;SDS011;9657;45.940;12.840;2022-10-16T07:08:30;25.17;;;18.30;;
19049;SDS011;9657;45.940;12.840;2022-10-16T07:11:00;26.00;;;19.83;;
19049;SDS011;9657;45.940;12.840;2022-10-16T07:13:27;24.10;;;19.33;;
19049;SDS011;9657;45.940;12.840;2022-10-16T07:15:55;26.27;;;18.38;;
19049;SDS011;9657;45.940;12.840;2022-10-16T07:18:23;23.83;;;19.27;;
19049;SDS011;9657;45.940;12.840;2022-10-16T07:21:02;26.02;;;19.65;;
19049;SDS011;9657;45.940;12.840;2022-10-16T07:23:30;26.02;;;19.02;;
19049;SDS011;9657;45.940;12.840;2022-10-16T07:25:57;26.30;;;19.98;;
19049;SDS011;9657;45.940;12.840;2022-10-16T07:28:24;26.08;;;19.73;;
19049;SDS011;9657;45.940;12.840;2022-10-16T07:30:51;27.52;;;20.35;;
19049;SDS011;9657;45.940;12.840;2022-10-16T07:33:18;28.48;;;19.65;;
19049;SDS011;9657;45.940;12.840;2022-10-16T07:35:50;29.40;;;20.73;;
19049;SDS011;9657;45.940;12.840;2022-10-16T07:38:20;24.95;;;19.10;;
19049;SDS011;9657;45.940;12.840;2022-10-16T07:40:47;25.45;;;18.13;;
19049;SDS011;9657;45.940;12.840;2022-10-16T07:43:21;24.50;;;18.77;;
19049;SDS011;9657;45.940;12.840;2022-10-16T07:45:48;25.88;;;19.48;;
19049;SDS011;9657;45.940;12.840;2022-10-16T07:48:16;27.95;;;19.48;;
19049;SDS011;9657;45.940;12.840;2022-10-16T07:50:44;27.92;;;19.33;;
19049;SDS011;9657;45.940;12.840;2022-10-16T07:53:13;24.35;;;19.33;;
19049;SDS011;9657;45.940;12.840;2022-10-16T07:55:41;23.77;;;18.98;;
19049;SDS011;9657;45.940;12.840;2022-10-16T07:58:08;25.23;;;19.15;;
19049;SDS011;9657;45.940;12.840;2022-10-16T08:00:35;26.75;;;19.23;;
19049;SDS011;9657;45.940;12.840;2022-10-16T08:03:03;25.35;;;20.02;;
19049;SDS011;9657;45.940;12.840;2022-10-16T08:05:31;26.42;;;18.88;;
19049;SDS011;9657;45.940;12.840;2022-10-16T08:07:59;24.30;;;18.55;;
19049;SDS011;9657;45.940;12.840;2022-10-16T08:10:28;24.63;;;19.02;;
19049;SDS011;9657;45.940;12.840;2022-10-16T08:12:56;24.30;;;19.08;;
19049;SDS011;9657;45.940;12.840;2022-10-16T08:15:23;25.90;;;19.70;;
19049;SDS011;9657;45.940;12.840;2022-10-16T08:17:54;26.55;;;19.58;;
19049;SDS011;9657;45.940;12.840;2022-10-16T08:20:25;28.38;;;19.77;;
19049;SDS011;9657;45.940;12.840;2022-10-16T08:22:53;25.13;;;18.48;;
19049;SDS011;9657;45.940;12.840;2022-10-16T08:25:20;24.60;;;18.13;;
19049;SDS011;9657;45.940;12.840;2022-10-16T08:27:49;23.38;;;18.55;;
19049;SDS011;9657;45.940;12.840;2022-10-16T08:30:17;23.42;;;17.17;;
19049;SDS011;9657;45.940;12.840;2022-10-16T08:32:45;25.20;;;18.55;;
19049;SDS011;9657;45.940;12.840;2022-10-16T08:35:12;24.55;;;18.58;;
19049;SDS011;9657;45.940;12.840;2022-10-16T08:37:40;25.50;;;19.40;;
19049;SDS011;9657;45.940;12.840;2022-10-16T08:40:13;24.95;;;17.83;;
19049;SDS011;9657;45.940;12.840;2022-10-16T08:42:50;25.38;;;18.35;;
19049;SDS011;9657;45.940;12.840;2022-10-16T08:45:31;22.77;;;18.25;;
19049;SDS011;9657;45.940;12.840;2022-10-16T08:48:08;24.13;;;18.13;;
19049;SDS011;9657;45.940;12.840;2022-10-16T08:50:41;23.50;;;17.38;;
19049;SDS011;9657;45.940;12.840;2022-10-16T08:53:10;25.13;;;19.35;;
19049;SDS011;9657;45.940;12.840;2022-10-16T08:55:43;26.23;;;18.80;;
19049;SDS011;9657;45.940;12.840;2022-10-16T08:58:15;23.63;;;18.67;;
19049;SDS011;9657;45.940;12.840;2022-10-16T09:00:43;24.92;;;18.77;;
19049;SDS011;9657;45.940;12.840;2022-10-16T09:03:16;23.85;;;18.30;;
19049;SDS011;9657;45.940;12.840;2022-10-16T09:06:08;23.42;;;18.52;;
19049;SDS011;9657;45.940;12.840;2022-10-16T09:08:46;23.95;;;19.08;;
19049;SDS011;9657;45.940;12.840;2022-10-16T09:11:24;24.52;;;18.00;;
19049;SDS011;9657;45.940;12.840;2022-10-16T09:14:03;23.33;;;18.60;;
19049;SDS011;9657;45.940;12.840;2022-10-16T09:16:44;25.20;;;19.20;;
19049;SDS011;9657;45.940;12.840;2022-10-16T09:19:19;22.35;;;17.95;;
19049;SDS011;9657;45.940;12.840;2022-10-16T09:21:50;23.80;;;18.00;;
19049;SDS011;9657;45.940;12.840;2022-10-16T09:24:19;24.52;;;18.67;;
19049;SDS011;9657;45.940;12.840;2022-10-16T09:26:49;27.52;;;18.80;;
19049;SDS011;9657;45.940;12.840;2022-10-16T09:29:18;22.10;;;18.05;;
19049;SDS011;9657;45.940;12.840;2022-10-16T09:31:47;24.45;;;18.27;;
19049;SDS011;9657;45.940;12.840;2022-10-16T09:34:16;26.95;;;18.15;;
19049;SDS011;9657;45.940;12.840;2022-10-16T09:36:48;25.92;;;17.73;;
19049;SDS011;9657;45.940;12.840;2022-10-16T09:39:15;25.85;;;18.70;;
19049;SDS011;9657;45.940;12.840;2022-10-16T09:41:43;25.65;;;19.38;;
19049;SDS011;9657;45.940;12.840;2022-10-16T09:44:18;23.92;;;18.58;;
19049;SDS011;9657;45.940;12.840;2022-10-16T09:47:00;24.65;;;18.92;;
19049;SDS011;9657;45.940;12.840;2022-10-16T09:49:28;24.40;;;18.77;;
19049;SDS011;9657;45.940;12.840;2022-10-16T09:52:02;24.48;;;19.17;;
19049;SDS011;9657;45.940;12.840;2022-10-16T09:54:29;24.75;;;19.13;;
19049;SDS011;9657;45.940;12.840;2022-10-16T09:57:04;24.55;;;18.88;;
19049;SDS011;9657;45.940;12.840;2022-10-16T09:59:33;26.27;;;19.05;;
19049;SDS011;9657;45.940;12.840;2022-10-16T10:02:01;22.35;;;17.48;;
19049;SDS011;9657;45.940;12.840;2022-10-16T10:04:37;22.40;;;17.98;;
19049;SDS011;9657;45.940;12.840;2022-10-16T10:07:06;21.80;;;18.42;;
19049;SDS011;9657;45.940;12.840;2022-10-16T10:09:43;23.08;;;18.58;;
19049;SDS011;9657;45.940;12.840;2022-10-16T10:12:16;23.80;;;19.15;;
19049;SDS011;9657;45.940;12.840;2022-10-16T10:14:47;24.13;;;17.58;;
19049;SDS011;9657;45.940;12.840;2022-10-16T10:17:16;23.88;;;18.38;;
19049;SDS011;9657;45.940;12.840;2022-10-16T10:19:46;22.80;;;18.38;;
19049;SDS011;9657;45.940;12.840;2022-10-16T10:22:25;22.92;;;18.63;;
19049;SDS011;9657;45.940;12.840;2022-10-16T10:24:56;22.00;;;17.33;;
19049;SDS011;9657;45.940;12.840;2022-10-16T10:27:29;25.00;;;18.75;;
19049;SDS011;9657;45.940;12.840;2022-10-16T10:30:07;23.77;;;18.10;;
19049;SDS011;9657;45.940;12.840;2022-10-16T10:32:45;21.30;;;17.30;;
19049;SDS011;9657;45.940;12.840;2022-10-16T10:35:18;20.88;;;16.85;;
19049;SDS011;9657;45.940;12.840;2022-10-16T10:37:59;27.08;;;18.70;;
19049;SDS011;9657;45.940;12.840;2022-10-16T10:40:38;24.60;;;18.25;;
19049;SDS011;9657;45.940;12.840;2022-10-16T10:43:17;21.70;;;17.48;;
19049;SDS011;9657;45.940;12.840;2022-10-16T10:45:54;22.20;;;17.77;;
19049;SDS011;9657;45.940;12.840;2022-10-16T10:48:33;21.92;;;17.48;;
19049;SDS011;9657;45.940;12.840;2022-10-16T10:51:13;24.48;;;18.65;;
19049;SDS011;9657;45.940;12.840;2022-10-16T10:53:47;20.60;;;16.90;;
19049;SDS011;9657;45.940;12.840;2022-10-16T10:56:24;23.17;;;18.40;;
19049;SDS011;9657;45.940;12.840;2022-10-16T10:59:14;24.67;;;17.58;;
19049;SDS011;9657;45.940;12.840;2022-10-16T11:02:03;23.05;;;17.58;;
19049;SDS011;9657;45.940;12.840;2022-10-16T11:04:45;24.90;;;17.20;;
19049;SDS011;9657;45.940;12.840;2022-10-16T11:07:32;24.27;;;18.48;;
19049;SDS011;9657;45.940;12.840;2022-10-16T11:10:03;26.88;;;19.13;;
19049;SDS011;9657;45.940;12.840;2022-10-16T11:12:36;29.00;;;18.60;;
19049;SDS011;9657;45.940;12.840;2022-10-16T11:15:10;35.55;;;20.38;;
19049;SDS011;9657;45.940;12.840;2022-10-16T11:17:44;34.67;;;20.88;;
19049;SDS011;9657;45.940;12.840;2022-10-16T11:20:15;28.20;;;19.58;;
19049;SDS011;9657;45.940;12.840;2022-10-16T11:22:47;30.55;;;20.00;;
19049;SDS011;9657;45.940;12.840;2022-10-16T11:25:19;34.35;;;19.88;;
19049;SDS011;9657;45.940;12.840;2022-10-16T11:27:49;34.53;;;20.52;;
19049;SDS011;9657;45.940;12.840;2022-10-16T11:30:20;35.55;;;20.63;;
19049;SDS011;9657;45.940;12.840;2022-10-16T11:33:00;30.80;;;19.80;;
19049;SDS011;9657;45.940;12.840;2022-10-16T11:35:38;30.23;;;18.30;;
19049;SDS011;9657;45.940;12.840;2022-10-16T11:38:10;26.02;;;17.65;;
19049;SDS011;9657;45.940;12.840;2022-10-16T11:40:42;27.00;;;18.70;;
19049;SDS011;9657;45.940;12.840;2022-10-16T11:43:13;28.65;;;18.85;;
19049;SDS011;9657;45.940;12.840;2022-10-16T11:45:44;33.33;;;19.60;;
19049;SDS011;9657;45.940;12.840;2022-10-16T11:48:18;26.83;;;18.20;;
19049;SDS011;9657;45.940;12.840;2022-10-16T11:50:52;27.90;;;19.10;;
19049;SDS011;9657;45.940;12.840;2022-10-16T11:53:23;31.42;;;20.13;;
19049;SDS011;9657;45.940;12.840;2022-10-16T11:56:01;29.50;;;18.45;;
19049;SDS011;9657;45.940;12.840;2022-10-16T11:58:28;26.02;;;18.55;;
19049;SDS011;9657;45.940;12.840;2022-10-16T12:01:00;28.77;;;17.52;;
19049;SDS011;9657;45.940;12.840;2022-10-16T12:03:42;26.27;;;19.27;;
19049;SDS011;9657;45.940;12.840;2022-10-16T12:06:18;28.60;;;20.08;;
19049;SDS011;9657;45.940;12.840;2022-10-16T12:08:52;28.70;;;17.90;;
19049;SDS011;9657;45.940;12.840;2022-10-16T12:11:31;27.27;;;18.60;;
19049;SDS011;9657;45.940;12.840;2022-10-16T12:14:04;26.35;;;18.50;;
19049;SDS011;9657;45.940;12.840;2022-10-16T12:16:34;27.83;;;18.80;;
19049;SDS011;9657;45.940;12.840;2022-10-16T12:19:13;25.85;;;18.27;;
19049;SDS011;9657;45.940;12.840;2022-10-16T12:21:41;28.75;;;18.05;;
19049;SDS011;9657;45.940;12.840;2022-10-16T12:24:19;25.30;;;18.08;;
19049;SDS011;9657;45.940;12.840;2022-10-16T12:26:53;28.25;;;18.08;;
19049;SDS011;9657;45.940;12.840;2022-10-16T12:29:23;22.75;;;16.88;;
19049;SDS011;9657;45.940;12.840;2022-10-16T12:31:55;23.42;;;17.23;;
19049;SDS011;9657;45.940;12.840;2022-10-16T12:34:26;26.10;;;18.40;;
19049;SDS011;9657;45.940;12.840;2022-10-16T12:36:55;23.58;;;17.17;;
19049;SDS011;9657;45.940;12.840;2022-10-16T12:39:33;24.17;;;17.88;;
19049;SDS011;9657;45.940;12.840;2022-10-16T12:42:03;25.67;;;17.75;;
19049;SDS011;9657;45.940;12.840;2022-10-16T12:44:32;22.52;;;16.67;;
19049;SDS011;9657;45.940;12.840;2022-10-16T12:47:00;25.30;;;18.05;;
19049;SDS011;9657;45.940;12.840;2022-10-16T12:49:35;27.35;;;18.23;;
19049;SDS011;9657;45.940;12.840;2022-10-16T12:52:04;21.85;;;17.17;;
19049;SDS011;9657;45.940;12.840;2022-10-16T12:54:51;24.60;;;17.45;;
19049;SDS011;9657;45.940;12.840;2022-10-16T13:00:20;23.15;;;17.73;;
19049;SDS011;9657;45.940;12.840;2022-10-16T13:03:04;26.90;;;17.70;;
19049;SDS011;9657;45.940;12.840;2022-10-16T13:06:02;25.15;;;17.80;;
19049;SDS011;9657;45.940;12.840;2022-10-16T13:08:44;22.80;;;15.48;;
19049;SDS011;9657;45.940;12.840;2022-10-16T13:11:25;23.60;;;16.20;;
19049;SDS011;9657;45.940;12.840;2022-10-16T13:14:11;22.33;;;16.77;;
19049;SDS011;9657;45.940;12.840;2022-10-16T13:16:55;21.38;;;16.92;;
19049;SDS011;9657;45.940;12.840;2022-10-16T13:19:33;22.40;;;16.58;;
19049;SDS011;9657;45.940;12.840;2022-10-16T13:22:11;22.55;;;15.73;;
19049;SDS011;9657;45.940;12.840;2022-10-16T13:24:53;23.88;;;16.83;;
19049;SDS011;9657;45.940;12.840;2022-10-16T13:27:33;22.45;;;17.27;;
19049;SDS011;9657;45.940;12.840;2022-10-16T13:30:09;25.75;;;16.75;;
19049;SDS011;9657;45.940;12.840;2022-10-16T13:32:40;24.30;;;16.20;;
19049;SDS011;9657;45.940;12.840;2022-10-16T13:35:20;21.50;;;16.30;;
19049;SDS011;9657;45.940;12.840;2022-10-16T13:37:50;23.88;;;15.73;;
19049;SDS011;9657;45.940;12.840;2022-10-16T13:40:19;21.80;;;16.27;;
19049;SDS011;9657;45.940;12.840;2022-10-16T13:42:48;23.98;;;17.13;;
19049;SDS011;9657;45.940;12.840;2022-10-16T13:45:16;24.50;;;17.33;;
19049;SDS011;9657;45.940;12.840;2022-10-16T13:47:44;23.35;;;17.08;;
19049;SDS011;9657;45.940;12.840;2022-10-16T13:50:12;21.60;;;16.27;;
19049;SDS011;9657;45.940;12.840;2022-10-16T13:52:40;21.33;;;16.30;;
19049;SDS011;9657;45.940;12.840;2022-10-16T13:55:11;23.67;;;16.20;;
19049;SDS011;9657;45.940;12.840;2022-10-16T13:57:39;20.73;;;15.25;;
19049;SDS011;9657;45.940;12.840;2022-10-16T14:00:20;23.85;;;17.33;;
19049;SDS011;9657;45.940;12.840;2022-10-16T14:02:53;23.60;;;16.50;;
19049;SDS011;9657;45.940;12.840;2022-10-16T14:05:25;20.98;;;15.80;;
19049;SDS011;9657;45.940;12.840;2022-10-16T14:07:52;20.42;;;15.35;;
19049;SDS011;9657;45.940;12.840;2022-10-16T14:10:24;23.40;;;16.70;;
19049;SDS011;9657;45.940;12.840;2022-10-16T14:12:54;22.40;;;15.23;;
19049;SDS011;9657;45.940;12.840;2022-10-16T14:15:23;20.17;;;15.57;;
19049;SDS011;9657;45.940;12.840;2022-10-16T14:17:50;25.42;;;16.70;;
19049;SDS011;9657;45.940;12.840;2022-10-16T14:20:20;21.23;;;16.27;;
19049;SDS011;9657;45.940;12.840;2022-10-16T14:22:57;23.00;;;16.75;;
19049;SDS011;9657;45.940;12.840;2022-10-16T14:25:27;20.80;;;16.50;;
19049;SDS011;9657;45.940;12.840;2022-10-16T14:27:57;21.50;;;15.85;;
19049;SDS011;9657;45.940;12.840;2022-10-16T14:30:26;25.25;;;15.43;;
19049;SDS011;9657;45.940;12.840;2022-10-16T14:32:54;20.50;;;16.02;;
19049;SDS011;9657;45.940;12.840;2022-10-16T14:35:28;20.20;;;16.75;;
19049;SDS011;9657;45.940;12.840;2022-10-16T14:37:57;20.27;;;15.10;;
19049;SDS011;9657;45.940;12.840;2022-10-16T14:40:28;23.05;;;15.85;;
19049;SDS011;9657;45.940;12.840;2022-10-16T14:42:57;19.70;;;16.08;;
19049;SDS011;9657;45.940;12.840;2022-10-16T14:45:26;25.15;;;16.20;;
19049;SDS011;9657;45.940;12.840;2022-10-16T14:47:55;22.30;;;15.77;;
19049;SDS011;9657;45.940;12.840;2022-10-16T14:50:24;23.35;;;15.50;;